Time;durP1;ratioP1;P1;durP2;ratioP2;P2;SDS_P1;SDS_P2;PMS_P1;PMS_P2;Temp;Humidity;BMP_temperature;BMP_pressure;BME280_temperature;BME280_humidity;BME280_pressure;Samples;Min_cycle;Max_cycle;Signal;HPM_P1;HPM_P2
2020/12/22 00:00:40;;;;;;;6.33;3.07;;;;;;;8.57;100.00;99935.06;4996001;28;20075;-64
2020/12/22 00:03:05;;;;;;;7.73;3.30;;;;;;;8.56;100.00;99928.13;4997546;28;20053;-65
2020/12/22 00:05:31;;;;;;;6.77;3.00;;;;;;;8.48;100.00;99922.97;4999230;28;20049;-65
2020/12/22 00:07:56;;;;;;;6.33;3.13;;;;;;;8.51;100.00;99919.47;4997246;28;20080;-64
2020/12/22 00:10:22;;;;;;;6.53;3.13;;;;;;;8.55;100.00;99925.53;4993694;28;20081;-65
2020/12/22 00:12:47;;;;;;;6.17;2.90;;;;;;;8.61;100.00;99913.38;4996723;28;20026;-64
2020/12/22 00:15:13;;;;;;;6.60;3.00;;;;;;;8.57;100.00;99902.94;4995959;28;20504;-65
2020/12/22 00:17:45;;;;;;;5.73;2.70;;;;;;;8.67;100.00;99910.72;4996600;28;20030;-65
2020/12/22 00:20:12;;;;;;;5.80;2.65;;;;;;;8.63;100.00;99902.94;4998043;28;20509;-64
2020/12/22 00:22:37;;;;;;;5.13;2.60;;;;;;;8.62;100.00;99896.84;4996060;28;20092;-65
2020/12/22 00:25:04;;;;;;;5.10;2.60;;;;;;;8.63;100.00;99898.59;5003444;28;20034;-65
2020/12/22 00:27:32;;;;;;;7.40;2.70;;;;;;;8.69;100.00;99892.47;5004636;28;20037;-64
2020/12/22 00:29:58;;;;;;;4.97;2.00;;;;;;;8.71;100.00;99886.38;5001119;28;20162;-64
2020/12/22 00:32:24;;;;;;;5.33;2.37;;;;;;;8.76;100.00;99897.66;5001009;28;20105;-64
2020/12/22 00:34:49;;;;;;;4.27;2.07;;;;;;;8.80;100.00;99899.38;5001088;28;20416;-62
2020/12/22 00:37:14;;;;;;;3.93;1.93;;;;;;;8.88;100.00;99890.66;5002951;28;20041;-64
2020/12/22 00:39:40;;;;;;;3.87;1.77;;;;;;;8.90;100.00;99886.31;5007221;28;20026;-64
2020/12/22 00:42:05;;;;;;;4.23;2.10;;;;;;;8.93;100.00;99881.06;5003304;28;20110;-64
2020/12/22 00:44:31;;;;;;;3.70;1.67;;;;;;;8.95;100.00;99871.50;5009711;28;20495;-64
2020/12/22 00:46:56;;;;;;;3.57;1.73;;;;;;;9.02;100.00;99875.81;5004572;28;20041;-64
2020/12/22 00:49:22;;;;;;;3.50;1.70;;;;;;;9.03;100.00;99882.75;5005529;28;20036;-64
2020/12/22 00:51:47;;;;;;;4.30;1.90;;;;;;;9.06;100.00;99882.72;4999162;28;20038;-64
2020/12/22 00:54:12;;;;;;;3.77;1.53;;;;;;;9.07;100.00;99877.50;5001913;28;20034;-64
2020/12/22 00:56:38;;;;;;;3.10;1.60;;;;;;;9.08;100.00;99880.97;5003858;28;20075;-63
2020/12/22 00:59:03;;;;;;;5.33;1.90;;;;;;;9.13;100.00;99876.63;4998127;28;20041;-64
2020/12/22 01:01:32;;;;;;;3.57;1.67;;;;;;;9.16;100.00;99884.41;5002223;28;20091;-65
2020/12/22 01:03:58;;;;;;;5.10;1.70;;;;;;;9.10;100.00;99874.91;4998818;28;20042;-65
2020/12/22 01:06:23;;;;;;;4.43;1.80;;;;;;;9.16;100.00;99884.41;5001810;28;20030;-65
2020/12/22 01:08:49;;;;;;;3.97;1.70;;;;;;;9.32;100.00;99870.38;5003180;28;20037;-64
2020/12/22 01:11:15;;;;;;;5.07;1.77;;;;;;;9.38;100.00;99865.13;4998078;28;20058;-65
2020/12/22 01:13:40;;;;;;;4.67;2.10;;;;;;;9.46;100.00;99851.19;4998708;28;20075;-64
2020/12/22 01:16:06;;;;;;;3.97;2.10;;;;;;;9.56;100.00;99850.19;4997639;28;20026;-63
2020/12/22 01:18:31;;;;;;;4.83;2.30;;;;;;;9.53;100.00;99838.06;5001874;28;20033;-64
2020/12/22 01:20:57;;;;;;;4.20;1.93;;;;;;;9.58;100.00;99845.88;5000031;28;20041;-64
2020/12/22 01:23:22;;;;;;;3.87;1.77;;;;;;;9.62;100.00;99839.72;4997373;28;20117;-64
2020/12/22 01:25:47;;;;;;;3.83;1.77;;;;;;;9.58;100.00;99840.66;4996492;28;20034;-64
2020/12/22 01:28:13;;;;;;;4.50;2.20;;;;;;;9.63;100.00;99844.06;4997575;28;20032;-64
2020/12/22 01:30:38;;;;;;;4.40;1.93;;;;;;;9.65;100.00;99842.31;5000544;28;20021;-64
2020/12/22 01:33:05;;;;;;;5.10;2.33;;;;;;;9.65;100.00;99831.88;4998284;28;20375;-64
2020/12/22 01:35:31;;;;;;;5.50;2.40;;;;;;;9.67;100.00;99825.75;4996593;28;20037;-64
2020/12/22 01:37:56;;;;;;;5.47;2.37;;;;;;;9.77;100.00;99830.88;4998515;28;20034;-63
2020/12/22 01:40:22;;;;;;;4.70;2.30;;;;;;;9.73;100.00;99829.19;5003238;28;20032;-64
2020/12/22 01:42:47;;;;;;;5.50;2.60;;;;;;;9.69;100.00;99825.72;4997350;28;20805;-62
2020/12/22 01:45:13;;;;;;;5.63;2.73;;;;;;;9.79;100.00;99814.31;4999577;28;20030;-64
2020/12/22 01:47:46;;;;;;;5.30;2.50;;;;;;;9.92;100.00;99826.38;4996776;28;20029;-63
2020/12/22 01:50:14;;;;;;;6.43;3.23;;;;;;;9.96;100.00;99825.47;4998444;28;20029;-63
2020/12/22 01:52:40;;;;;;;4.43;2.00;;;;;;;10.14;100.00;99824.41;5001754;28;20405;-63
2020/12/22 01:55:06;;;;;;;6.37;3.00;;;;;;;10.32;100.00;99820.78;4992773;28;20034;-63
2020/12/22 01:57:31;;;;;;;5.90;3.00;;;;;;;10.36;100.00;99816.38;5004072;28;20502;-63
2020/12/22 01:59:57;;;;;;;7.47;3.77;;;;;;;10.37;100.00;99821.56;4999448;28;20130;-63
2020/12/22 02:02:24;;;;;;;6.47;3.43;;;;;;;10.40;100.00;99828.50;4995049;28;20025;-63
2020/12/22 02:04:50;;;;;;;6.50;3.37;;;;;;;10.44;100.00;99815.41;4999056;28;20034;-63
2020/12/22 02:07:15;;;;;;;6.80;3.10;;;;;;;10.48;100.00;99811.84;4997280;28;20041;-62
2020/12/22 02:09:43;;;;;;;7.17;3.77;;;;;;;10.53;100.00;99807.41;4998840;28;20459;-63
2020/12/22 02:12:08;;;;;;;6.87;3.30;;;;;;;10.48;100.00;99806.63;5000307;28;20089;-63
2020/12/22 02:14:34;;;;;;;8.10;4.10;;;;;;;10.53;100.00;99799.56;5003058;28;20037;-63
2020/12/22 02:16:59;;;;;;;5.63;2.73;;;;;;;10.70;100.00;99801.13;4999527;28;20034;-63
2020/12/22 02:19:25;;;;;;;7.07;2.93;;;;;;;10.74;100.00;99781.88;4999783;28;20030;-62
2020/12/22 02:21:50;;;;;;;7.20;3.90;;;;;;;10.64;100.00;99795.97;4992946;28;20382;-63
2020/12/22 02:24:15;;;;;;;8.17;3.87;;;;;;;10.73;100.00;99785.38;4998518;28;20062;-62
2020/12/22 02:26:41;;;;;;;7.53;3.50;;;;;;;10.73;100.00;99781.00;4996614;28;20057;-61
2020/12/22 02:29:06;;;;;;;6.87;3.47;;;;;;;10.83;100.00;99763.44;5001644;28;20037;-63
2020/12/22 02:31:32;;;;;;;6.77;3.20;;;;;;;10.82;100.00;99769.56;5000984;28;20034;-63
2020/12/22 02:33:57;;;;;;;6.50;3.57;;;;;;;10.83;100.00;99766.06;4999387;28;20386;-63
2020/12/22 02:36:22;;;;;;;6.77;3.50;;;;;;;10.86;100.00;99766.88;5002198;28;20096;-63
2020/12/22 02:38:48;;;;;;;6.00;3.17;;;;;;;10.97;100.00;99747.53;4997262;28;20087;-63
2020/12/22 02:41:14;;;;;;;6.27;3.33;;;;;;;10.97;100.00;99758.00;5001339;28;20048;-63
2020/12/22 02:43:39;;;;;;;6.20;3.30;;;;;;;10.91;100.00;99753.75;4996392;28;20029;-63
2020/12/22 02:46:05;;;;;;;6.60;3.23;;;;;;;10.97;100.00;99758.00;5003056;28;20080;-63
2020/12/22 02:48:30;;;;;;;7.00;3.43;;;;;;;10.96;100.00;99746.69;4996139;28;20109;-63
2020/12/22 02:50:55;;;;;;;7.60;3.77;;;;;;;10.97;100.00;99748.41;4993533;28;20038;-63
2020/12/22 02:53:21;;;;;;;6.57;3.13;;;;;;;10.96;100.00;99757.16;5001441;28;20033;-63
2020/12/22 02:55:47;;;;;;;6.53;3.30;;;;;;;10.94;100.00;99755.44;4996192;28;20038;-64
2020/12/22 02:58:12;;;;;;;7.43;3.63;;;;;;;10.97;100.00;99751.03;4995592;28;20038;-64
2020/12/22 03:00:39;;;;;;;4.23;2.20;;;;;;;11.06;100.00;99755.25;4999519;28;20034;-64
2020/12/22 03:03:05;;;;;;;7.13;3.73;;;;;;;11.05;100.00;99757.00;5003200;28;20038;-63
2020/12/22 03:05:30;;;;;;;7.27;3.77;;;;;;;11.09;100.00;99753.44;4994415;28;20042;-63
2020/12/22 03:07:56;;;;;;;7.90;3.80;;;;;;;11.16;100.00;99754.22;4997257;28;20058;-62
2020/12/22 03:10:21;;;;;;;6.43;3.37;;;;;;;11.18;100.00;99756.81;4996961;28;20038;-64
2020/12/22 03:12:48;;;;;;;8.50;3.07;;;;;;;11.21;100.00;99756.75;4991077;28;20026;-63
2020/12/22 03:15:13;;;;;;;7.17;3.77;;;;;;;11.25;100.00;99758.41;4997861;28;20122;-63
2020/12/22 03:17:39;;;;;;;6.50;3.20;;;;;;;11.24;100.00;99743.59;4997494;28;20118;-63
2020/12/22 03:20:08;;;;;;;6.40;3.20;;;;;;;11.22;100.00;99769.81;4994512;28;20027;-63
2020/12/22 03:22:37;;;;;;;7.27;3.57;;;;;;;11.17;100.00;99760.31;4997319;28;20026;-63
2020/12/22 03:25:07;;;;;;;13.63;3.83;;;;;;;11.29;100.00;99762.72;4996219;28;20120;-63
2020/12/22 03:27:33;;;;;;;6.43;3.20;;;;;;;11.34;100.00;99758.28;5000483;28;20465;-63
2020/12/22 03:29:58;;;;;;;8.23;3.57;;;;;;;11.31;100.00;99753.09;4997905;28;20034;-64
2020/12/22 03:32:25;;;;;;;7.17;3.60;;;;;;;11.31;100.00;99753.09;4994784;28;20145;-64
2020/12/22 03:34:51;;;;;;;6.77;3.10;;;;;;;11.35;100.00;99752.16;5004009;28;20034;-64
2020/12/22 03:37:22;;;;;;;7.70;3.37;;;;;;;11.41;100.00;99754.69;5003071;28;20026;-64
2020/12/22 03:39:51;;;;;;;6.20;2.77;;;;;;;11.44;100.00;99757.22;5000214;28;20038;-64
2020/12/22 03:42:18;;;;;;;8.10;3.17;;;;;;;11.45;100.00;99751.97;4997354;28;20519;-64
2020/12/22 03:44:45;;;;;;;5.67;2.83;;;;;;;11.55;100.00;99736.97;4998480;28;20161;-63
2020/12/22 03:47:11;;;;;;;5.50;2.73;;;;;;;11.59;100.00;99743.00;4994377;28;20431;-64
2020/12/22 03:49:36;;;;;;;6.20;2.83;;;;;;;11.55;100.00;99744.81;4997009;28;20037;-64
2020/12/22 03:52:02;;;;;;;6.03;2.80;;;;;;;11.58;100.00;99746.50;4996708;28;20038;-64
2020/12/22 03:54:28;;;;;;;5.20;2.47;;;;;;;11.66;100.00;99745.50;5002030;28;20040;-63
2020/12/22 03:56:53;;;;;;;8.40;2.93;;;;;;;11.59;100.00;99743.88;5002836;28;20034;-64
2020/12/22 03:59:19;;;;;;;6.50;2.80;;;;;;;11.62;100.00;99749.03;4998365;28;20121;-63
2020/12/22 04:01:44;;;;;;;5.43;2.50;;;;;;;11.61;100.00;99747.31;5004703;28;20109;-63
2020/12/22 04:04:09;;;;;;;4.60;1.90;;;;;;;11.75;100.00;99744.47;5003544;28;20038;-63
2020/12/22 04:06:35;;;;;;;5.93;2.13;;;;;;;11.73;100.00;99749.69;5001194;28;20030;-63
2020/12/22 04:09:00;;;;;;;5.03;2.27;;;;;;;11.85;100.00;99742.53;5010247;28;20480;-62
2020/12/22 04:11:25;;;;;;;5.17;2.27;;;;;;;11.85;100.00;99750.41;5003718;28;20033;-63
2020/12/22 04:13:51;;;;;;;4.27;1.90;;;;;;;11.81;100.00;99749.59;5000684;28;20040;-63
2020/12/22 04:16:16;;;;;;;4.37;1.93;;;;;;;11.85;100.00;99739.91;5002205;28;20057;-64
2020/12/22 04:18:42;;;;;;;3.57;1.60;;;;;;;11.88;100.00;99755.59;4996120;28;20026;-63
2020/12/22 04:21:07;;;;;;;4.90;2.03;;;;;;;11.85;100.00;99750.41;4998269;28;20769;-63
2020/12/22 04:23:33;;;;;;;6.63;1.80;;;;;;;11.79;100.00;99755.75;4997813;28;20038;-63
2020/12/22 04:25:58;;;;;;;4.47;2.00;;;;;;;11.78;100.00;99749.63;4999443;28;20034;-63
2020/12/22 04:28:24;;;;;;;3.70;1.40;;;;;;;11.81;100.00;99753.97;5008923;28;20021;-64
2020/12/22 04:30:49;;;;;;;3.40;1.50;;;;;;;11.93;100.00;99748.50;5003298;28;20025;-63
2020/12/22 04:33:15;;;;;;;1.37;0.70;;;;;;;11.93;100.00;99748.50;4998252;28;20555;-63
2020/12/22 04:35:40;;;;;;;0.73;0.47;;;;;;;11.97;100.00;99748.41;4997242;28;20037;-63
2020/12/22 04:38:06;;;;;;;1.03;0.60;;;;;;;11.98;100.00;99758.00;5000629;28;20070;-63
2020/12/22 04:40:32;;;;;;;1.67;0.57;;;;;;;11.95;100.00;99741.47;4994433;28;20018;-63
2020/12/22 04:43:01;;;;;;;1.60;0.73;;;;;;;11.86;100.00;99765.22;5000720;28;20045;-64
2020/12/22 04:45:28;;;;;;;1.40;0.80;;;;;;;11.85;100.00;99755.63;4996059;28;20050;-62
2020/12/22 04:47:55;;;;;;;4.37;0.80;;;;;;;11.71;100.00;99764.59;4999844;28;20022;-63
2020/12/22 04:50:21;;;;;;;1.03;0.60;;;;;;;11.77;100.00;99773.25;4998875;28;20073;-63
2020/12/22 04:52:47;;;;;;;1.63;0.60;;;;;;;11.86;100.00;99773.09;4999157;28;20041;-63
2020/12/22 04:55:13;;;;;;;1.97;0.70;;;;;;;11.88;100.00;99776.56;4994520;28;20030;-63
2020/12/22 04:57:49;;;;;;;1.13;0.53;;;;;;;11.85;100.00;99782.69;5005803;28;20769;-63
2020/12/22 05:00:17;;;;;;;1.17;0.57;;;;;;;11.83;100.00;99779.25;5007355;28;20828;-63
2020/12/22 05:02:43;;;;;;;1.83;0.60;;;;;;;11.92;100.00;99789.56;5002157;28;20025;-63
2020/12/22 05:05:10;;;;;;;3.43;1.07;;;;;;;11.86;100.00;99788.81;5000635;28;20030;-63
2020/12/22 05:07:37;;;;;;;1.67;0.70;;;;;;;11.94;100.00;99798.25;5001446;28;20029;-64
2020/12/22 05:10:13;;;;;;;1.67;0.70;;;;;;;11.94;100.00;99798.25;4994643;28;20048;-63
2020/12/22 05:12:41;;;;;;;1.17;0.53;;;;;;;11.87;100.00;99796.66;5000119;28;20030;-63
2020/12/22 05:15:08;;;;;;;2.13;0.77;;;;;;;11.87;100.00;99801.00;4995239;28;20034;-64
2020/12/22 05:17:45;;;;;;;3.13;0.80;;;;;;;11.89;100.00;99794.00;4997893;28;20027;-63
2020/12/22 05:20:14;;;;;;;1.40;0.53;;;;;;;11.91;100.00;99798.31;5000905;28;20041;-63
2020/12/22 05:22:42;;;;;;;1.23;0.60;;;;;;;11.90;100.00;99806.22;4999783;28;20044;-63
2020/12/22 05:25:07;;;;;;;1.17;0.50;;;;;;;12.06;100.00;99801.53;5000263;28;20038;-63
2020/12/22 05:27:34;;;;;;;2.23;0.50;;;;;;;12.10;100.00;99817.16;5003006;28;20092;-63
2020/12/22 05:30:01;;;;;;;2.13;0.83;;;;;;;12.06;100.00;99818.13;4997979;28;20034;-63
2020/12/22 05:32:27;;;;;;;1.17;0.70;;;;;;;12.03;100.00;99823.44;5004342;28;20034;-64
2020/12/22 05:34:54;;;;;;;1.87;0.87;;;;;;;12.05;100.00;99820.78;5006660;28;20080;-63
2020/12/22 05:37:22;;;;;;;1.00;0.60;;;;;;;12.10;100.00;99822.41;5007899;28;20026;-63
2020/12/22 05:39:49;;;;;;;1.10;0.50;;;;;;;12.15;100.00;99828.44;5006425;28;20489;-63
2020/12/22 05:42:15;;;;;;;1.00;0.60;;;;;;;12.12;100.00;99828.50;5004527;28;20030;-63
2020/12/22 05:44:45;;;;;;;1.30;0.57;;;;;;;12.12;100.00;99828.50;5009012;28;20036;-63
2020/12/22 05:47:14;;;;;;;2.80;0.90;;;;;;;12.10;100.00;99824.16;5006640;28;20401;-63
2020/12/22 05:49:49;;;;;;;1.33;0.70;;;;;;;12.11;100.00;99826.75;5002001;28;20022;-64
2020/12/22 05:52:15;;;;;;;1.17;0.60;;;;;;;12.17;100.00;99821.41;5002904;28;20046;-63
2020/12/22 05:54:45;;;;;;;1.53;0.60;;;;;;;12.14;100.00;99829.34;5008423;28;20069;-63
2020/12/22 05:57:11;;;;;;;1.40;0.60;;;;;;;12.16;100.00;99834.53;5007074;28;20377;-64
2020/12/22 05:59:36;;;;;;;1.17;0.50;;;;;;;12.14;100.00;99836.34;5007530;28;20044;-63
2020/12/22 06:02:03;;;;;;;1.37;0.63;;;;;;;12.11;100.00;99844.22;5002818;28;20497;-64
2020/12/22 06:04:29;;;;;;;1.00;0.60;;;;;;;12.10;100.00;99838.13;5004364;28;20405;-64
2020/12/22 06:06:55;;;;;;;1.33;0.70;;;;;;;12.12;100.00;99844.22;5005765;28;20037;-64
2020/12/22 06:09:22;;;;;;;2.40;1.00;;;;;;;12.09;100.00;99849.50;5006186;28;20493;-64
2020/12/22 06:11:48;;;;;;;1.23;0.60;;;;;;;12.11;100.00;99852.97;5006928;28;20037;-63
2020/12/22 06:14:23;;;;;;;2.17;1.00;;;;;;;12.06;100.00;99852.19;5003027;28;20026;-64
2020/12/22 06:16:49;;;;;;;2.67;1.13;;;;;;;12.01;100.00;99856.66;5008748;28;20462;-64
2020/12/22 06:19:15;;;;;;;2.13;0.90;;;;;;;12.02;100.00;99848.78;5005807;28;20489;-63
2020/12/22 06:21:40;;;;;;;2.30;1.00;;;;;;;12.11;100.00;99852.09;5008019;28;20111;-63
2020/12/22 06:24:06;;;;;;;3.63;1.10;;;;;;;12.05;100.00;99862.72;5004620;28;20112;-63
2020/12/22 06:26:31;;;;;;;2.53;1.00;;;;;;;12.03;100.00;99871.47;5008847;28;20026;-62
2020/12/22 06:28:57;;;;;;;2.70;1.13;;;;;;;12.02;100.00;99864.50;5004169;28;20099;-63
2020/12/22 06:31:24;;;;;;;2.93;1.20;;;;;;;12.06;100.00;99870.53;5006345;28;20026;-64
2020/12/22 06:33:51;;;;;;;3.40;1.10;;;;;;;12.03;100.00;99870.59;5007375;28;20038;-63
2020/12/22 06:36:17;;;;;;;4.43;0.93;;;;;;;12.00;100.00;99870.66;5007095;28;20035;-63
2020/12/22 06:38:55;;;;;;;2.60;1.20;;;;;;;11.95;100.00;99875.97;5006576;28;20032;-63
2020/12/22 06:41:26;;;;;;;1.93;1.00;;;;;;;12.02;100.00;99884.59;5003490;28;20121;-64
2020/12/22 06:43:56;;;;;;;2.13;1.00;;;;;;;12.02;100.00;99866.25;5004447;28;20034;-63
2020/12/22 06:46:33;;;;;;;1.70;0.80;;;;;;;12.01;100.00;99883.72;5001678;28;20393;-63
2020/12/22 06:48:59;;;;;;;2.50;1.13;;;;;;;12.04;100.00;99882.81;5007720;28;20030;-62
2020/12/22 06:51:31;;;;;;;2.23;1.03;;;;;;;11.96;100.00;99885.53;5004151;28;20021;-63
2020/12/22 06:53:58;;;;;;;2.33;1.10;;;;;;;12.02;100.00;99900.31;5003953;28;20038;-63
2020/12/22 06:56:42;;;;;;;2.50;1.10;;;;;;;12.03;100.00;99891.56;5005074;28;20030;-63
2020/12/22 06:59:09;;;;;;;2.53;1.10;;;;;;;11.97;100.00;99902.13;5007045;28;20029;-64
2020/12/22 07:01:36;;;;;;;2.77;0.97;;;;;;;12.00;100.00;99907.34;4983346;28;20049;-62
2020/12/22 07:04:24;;;;;;;2.33;1.10;;;;;;;11.98;100.00;99904.72;5003626;28;20104;-63
2020/12/22 07:06:58;;;;;;;2.60;1.00;;;;;;;12.01;100.00;99904.69;4978331;28;20196;-63
2020/12/22 07:09:35;;;;;;;4.10;1.30;;;;;;;11.99;100.00;99910.81;4999788;28;20444;-63
2020/12/22 07:12:09;;;;;;;2.83;1.10;;;;;;;12.02;100.00;99910.81;5003989;28;20029;-63
2020/12/22 07:14:55;;;;;;;2.30;0.87;;;;;;;12.07;100.00;99914.19;5006643;28;20064;-63
2020/12/22 07:17:21;;;;;;;3.03;1.10;;;;;;;11.99;100.00;99921.31;5000702;28;20048;-63
2020/12/22 07:19:49;;;;;;;2.53;1.00;;;;;;;11.97;100.00;99918.72;4987493;28;20030;-64
2020/12/22 07:22:16;;;;;;;2.57;1.27;;;;;;;11.97;100.00;99934.44;5000522;28;20036;-63
2020/12/22 07:24:41;;;;;;;1.90;0.90;;;;;;;11.97;100.00;99923.09;5004516;28;20104;-63
2020/12/22 07:27:08;;;;;;;1.93;0.97;;;;;;;12.03;100.00;99933.50;5010519;28;20137;-63
2020/12/22 07:29:40;;;;;;;2.07;0.70;;;;;;;12.03;100.00;99934.34;5012520;28;20026;-64
2020/12/22 07:32:07;;;;;;;3.13;1.10;;;;;;;12.00;100.00;99944.03;5011580;28;20113;-63
2020/12/22 07:34:34;;;;;;;2.30;1.10;;;;;;;11.99;100.00;99942.28;5012526;28;20026;-63
2020/12/22 07:37:06;;;;;;;2.60;1.03;;;;;;;12.04;100.00;99950.94;5010575;28;20061;-63
2020/12/22 07:39:32;;;;;;;2.80;1.20;;;;;;;12.02;100.00;99957.97;5011488;28;20096;-63
2020/12/22 07:42:17;;;;;;;3.33;1.03;;;;;;;12.03;100.00;99954.44;5012289;28;20034;-63
2020/12/22 07:44:44;;;;;;;2.97;1.00;;;;;;;12.02;100.00;99953.59;5012748;28;20400;-63
2020/12/22 07:47:10;;;;;;;3.80;1.10;;;;;;;12.03;100.00;99964.94;5011623;28;20064;-63
2020/12/22 07:49:37;;;;;;;3.87;1.60;;;;;;;12.00;100.00;99967.63;5012159;28;20111;-63
2020/12/22 07:52:03;;;;;;;3.27;1.43;;;;;;;11.95;100.00;99966.81;5011808;28;20125;-64
2020/12/22 07:54:28;;;;;;;3.20;1.40;;;;;;;11.98;100.00;99972.00;5009842;28;20038;-63
2020/12/22 07:56:59;;;;;;;2.63;1.20;;;;;;;12.03;100.00;99975.41;5011705;28;20532;-63
2020/12/22 07:59:25;;;;;;;5.07;1.50;;;;;;;11.93;100.00;99985.19;5011017;28;20443;-65
2020/12/22 08:01:51;;;;;;;4.73;1.60;;;;;;;11.95;100.00;99985.16;5006784;28;20033;-63
2020/12/22 08:04:20;;;;;;;3.23;1.20;;;;;;;11.97;100.00;99978.97;5003673;28;20108;-63
2020/12/22 08:06:57;;;;;;;3.70;1.40;;;;;;;11.97;100.00;99980.75;5008470;28;20049;-63
2020/12/22 08:09:25;;;;;;;2.30;1.20;;;;;;;11.97;100.00;99984.22;5011466;28;20034;-63
2020/12/22 08:11:53;;;;;;;2.80;1.40;;;;;;;11.96;100.00;99994.75;5009562;28;20448;-63
2020/12/22 08:14:20;;;;;;;6.57;1.47;;;;;;;11.99;100.00;100006.06;5009307;28;20021;-62
2020/12/22 08:16:47;;;;;;;3.73;1.60;;;;;;;12.02;100.00;100002.50;5009459;28;20022;-63
2020/12/22 08:19:13;;;;;;;4.47;1.67;;;;;;;12.00;100.00;99999.06;5009266;28;20030;-63
2020/12/22 08:21:39;;;;;;;4.17;1.70;;;;;;;12.01;100.00;99987.69;4985755;28;20049;-63
2020/12/22 08:24:05;;;;;;;3.93;1.20;;;;;;;12.09;100.00;100014.63;5010194;28;20048;-62
2020/12/22 08:26:31;;;;;;;4.80;1.57;;;;;;;12.01;100.00;100004.28;5009622;28;20030;-62
2020/12/22 08:28:56;;;;;;;5.13;1.07;;;;;;;12.04;100.00;100008.59;5010233;28;20033;-62
2020/12/22 08:31:26;;;;;;;3.63;1.43;;;;;;;12.10;100.00;100018.09;4987983;28;20116;-63
2020/12/22 08:33:54;;;;;;;5.53;1.80;;;;;;;12.12;100.00;100009.34;5008757;28;20544;-63
2020/12/22 08:36:21;;;;;;;4.80;2.03;;;;;;;12.10;100.00;100028.59;5011506;28;20432;-63
2020/12/22 08:38:47;;;;;;;4.30;1.90;;;;;;;11.98;100.00;100029.63;5010286;28;20041;-63
2020/12/22 08:41:18;;;;;;;3.67;1.80;;;;;;;11.94;100.00;100039.31;5010403;28;20108;-63
2020/12/22 08:43:52;;;;;;;4.73;1.47;;;;;;;12.03;100.00;100040.94;5006722;28;20506;-63
2020/12/22 08:46:19;;;;;;;5.37;1.87;;;;;;;12.03;100.00;100044.41;5010486;28;20034;-63
2020/12/22 08:48:46;;;;;;;3.90;1.50;;;;;;;12.07;100.00;100039.97;5011010;28;20107;-62
2020/12/22 08:51:22;;;;;;;2.63;1.20;;;;;;;12.10;100.00;100034.69;5010784;28;20022;-63
2020/12/22 08:53:53;;;;;;;3.83;1.50;;;;;;;12.12;100.00;100046.03;5008833;28;20069;-63
2020/12/22 08:56:23;;;;;;;5.43;1.73;;;;;;;12.13;100.00;100050.41;5009655;28;20109;-63
2020/12/22 08:58:59;;;;;;;4.60;1.50;;;;;;;12.13;100.00;100050.41;4992997;28;20036;-63
2020/12/22 09:01:27;;;;;;;6.07;1.23;;;;;;;12.21;100.00;100058.13;5010941;28;20030;-62
2020/12/22 09:03:58;;;;;;;5.17;1.10;;;;;;;12.29;100.00;100046.63;5009829;28;20030;-63
2020/12/22 09:06:48;;;;;;;3.93;1.50;;;;;;;12.20;100.00;100059.00;5003851;28;20625;-63
2020/12/22 09:09:22;;;;;;;3.93;1.33;;;;;;;12.16;100.00;100060.81;5009030;28;20022;-63
2020/12/22 09:11:48;;;;;;;2.17;1.17;;;;;;;12.13;100.00;100066.13;5011264;28;20037;-64
2020/12/22 09:14:15;;;;;;;4.77;1.33;;;;;;;12.24;100.00;100071.19;5010441;28;20378;-63
2020/12/22 09:16:52;;;;;;;4.93;1.30;;;;;;;12.29;100.00;100078.09;5009988;28;20029;-63
2020/12/22 09:19:40;;;;;;;3.37;1.17;;;;;;;12.26;100.00;100078.16;5008159;28;20493;-63
2020/12/22 09:22:06;;;;;;;2.53;1.30;;;;;;;12.20;100.00;100090.47;5010763;28;20404;-63
2020/12/22 09:24:33;;;;;;;2.53;0.90;;;;;;;12.20;100.00;100088.72;5009365;28;20105;-64
2020/12/22 09:27:07;;;;;;;2.67;1.07;;;;;;;12.20;100.00;100067.75;5010306;28;20056;-63
2020/12/22 09:29:35;;;;;;;2.30;1.20;;;;;;;12.25;100.00;100092.16;5007911;28;20048;-63
2020/12/22 09:32:01;;;;;;;3.10;1.20;;;;;;;12.41;100.00;100087.53;5008135;28;20022;-65
2020/12/22 09:34:29;;;;;;;2.33;1.13;;;;;;;12.47;100.00;100102.28;5009193;28;20041;-63
2020/12/22 09:36:57;;;;;;;3.07;0.93;;;;;;;12.38;100.00;100102.44;5009635;28;20392;-63
2020/12/22 09:39:23;;;;;;;1.80;0.90;;;;;;;12.38;100.00;100107.69;5010730;28;20384;-63
2020/12/22 09:41:50;;;;;;;2.47;1.13;;;;;;;12.24;100.00;100106.16;5009074;28;20030;-64
2020/12/22 09:44:15;;;;;;;3.13;1.00;;;;;;;12.12;100.00;100111.56;5010009;28;20123;-63
2020/12/22 09:46:41;;;;;;;9.50;1.43;;;;;;;12.05;100.00;100109.91;5009586;28;20060;-63
2020/12/22 09:49:06;;;;;;;3.60;1.67;;;;;;;12.02;100.00;100107.34;5009363;28;20037;-64
2020/12/22 09:51:32;;;;;;;2.77;1.37;;;;;;;11.97;100.00;100111.75;5009926;28;20022;-63
2020/12/22 09:53:57;;;;;;;2.90;1.37;;;;;;;11.92;100.00;100113.59;5008884;28;20049;-63
2020/12/22 09:56:23;;;;;;;3.47;1.10;;;;;;;11.89;100.00;100122.38;5008964;28;20033;-62
2020/12/22 09:58:48;;;;;;;8.90;1.27;;;;;;;11.86;100.00;100135.47;5007781;28;20037;-63
2020/12/22 10:01:20;;;;;;;5.13;1.80;;;;;;;11.84;100.00;100126.78;5007983;28;20508;-63
2020/12/22 10:03:45;;;;;;;3.80;1.40;;;;;;;11.86;100.00;100139.84;5009279;28;20064;-63
2020/12/22 10:06:14;;;;;;;4.40;1.50;;;;;;;11.87;100.00;100136.34;5008482;28;20113;-63
2020/12/22 10:08:40;;;;;;;4.10;1.20;;;;;;;11.84;100.00;100139.88;5007822;28;20053;-63
2020/12/22 10:11:05;;;;;;;1.20;0.70;;;;;;;11.94;100.00;100136.25;5008567;28;20107;-63
2020/12/22 10:13:31;;;;;;;4.47;1.40;;;;;;;11.86;100.00;100145.09;5007987;28;20097;-63
2020/12/22 10:15:59;;;;;;;3.37;1.40;;;;;;;11.84;100.00;100141.63;5010663;28;20037;-63
2020/12/22 10:18:26;;;;;;;5.93;1.20;;;;;;;11.82;100.00;100153.88;4992122;28;20049;-62
2020/12/22 10:20:52;;;;;;;5.57;1.30;;;;;;;11.79;100.00;100141.69;5008165;28;20025;-63
2020/12/22 10:23:18;;;;;;;3.07;1.27;;;;;;;11.76;100.00;100148.72;5009032;28;20511;-63
2020/12/22 10:25:43;;;;;;;5.60;1.70;;;;;;;11.84;100.00;100154.72;5006546;28;20029;-63
2020/12/22 10:28:09;;;;;;;3.63;1.10;;;;;;;11.87;100.00;100163.44;5010161;28;20547;-64
2020/12/22 10:30:34;;;;;;;2.60;0.90;;;;;;;11.91;100.00;100148.53;4991063;28;20030;-64
2020/12/22 10:33:00;;;;;;;3.97;1.37;;;;;;;11.98;100.00;100160.66;5009182;28;20112;-64
2020/12/22 10:35:25;;;;;;;1.47;0.77;;;;;;;12.09;100.00;100174.50;5008924;28;20026;-63
2020/12/22 10:37:50;;;;;;;2.23;1.00;;;;;;;12.09;100.00;100179.72;5008202;28;20398;-64
2020/12/22 10:40:16;;;;;;;1.37;0.70;;;;;;;12.12;100.00;100179.72;5010373;28;20091;-65
2020/12/22 10:42:41;;;;;;;5.30;1.33;;;;;;;12.10;100.00;100189.31;5010253;28;20025;-63
2020/12/22 10:45:07;;;;;;;5.63;1.30;;;;;;;12.09;100.00;100190.22;5010999;28;20100;-64
2020/12/22 10:47:33;;;;;;;2.63;1.20;;;;;;;12.07;100.00;100199.84;5008585;28;20433;-64
2020/12/22 10:49:58;;;;;;;2.20;0.97;;;;;;;12.02;100.00;100205.16;5008228;28;20029;-64
2020/12/22 10:52:23;;;;;;;4.40;1.77;;;;;;;12.05;100.00;100214.75;5007327;28;20029;-64
2020/12/22 10:54:49;;;;;;;3.73;1.40;;;;;;;11.97;100.00;100216.56;5008238;28;20596;-64
2020/12/22 10:57:14;;;;;;;4.33;1.50;;;;;;;11.90;100.00;100231.53;4977845;28;20615;-65
2020/12/22 10:59:40;;;;;;;4.03;1.47;;;;;;;11.87;100.00;100243.75;5002179;28;20018;-64
2020/12/22 11:02:05;;;;;;;4.13;1.53;;;;;;;11.82;100.00;100242.97;5005092;28;20068;-64
2020/12/22 11:04:31;;;;;;;3.23;1.20;;;;;;;11.68;100.00;100240.47;5007067;28;20073;-64
2020/12/22 11:07:11;;;;;;;2.97;1.40;;;;;;;11.64;100.00;100250.13;5001599;28;20532;-64
2020/12/22 11:09:36;;;;;;;5.13;1.33;;;;;;;11.80;100.00;100255.22;5005191;28;20080;-64
2020/12/22 11:12:02;;;;;;;6.23;1.57;;;;;;;11.81;100.00;100256.94;5008379;28;20026;-64
2020/12/22 11:14:27;;;;;;;4.77;1.50;;;;;;;11.80;100.00;100269.19;5007774;28;20026;-64
2020/12/22 11:16:52;;;;;;;3.87;1.60;;;;;;;11.78;100.00;100270.06;5007969;28;20049;-64
2020/12/22 11:19:18;;;;;;;6.87;1.60;;;;;;;11.73;100.00;100276.19;5007461;28;20018;-64
2020/12/22 11:21:44;;;;;;;5.10;2.00;;;;;;;11.76;100.00;100279.69;5007372;28;20512;-64
2020/12/22 11:24:10;;;;;;;3.17;1.33;;;;;;;11.74;100.00;100285.78;5007910;28;20109;-64